KLRO Airport Information

Runway Information
Runway 17 Length 3700 ft width 75 ft
Elevation 12 ft Threshold 0 ft Heading 167
Runway 35 Length 3700 ft Width 75 ft
Elevation 12 ft Threshold 0 ft Heading 347
Airport Frequencies
Type A/D Name CHARLESTON Frequency 135.8 MHZ
Type UNIC Name CTAF/UNICO Frequency 122.7 MHZ
Airport Navaids
Airport Weather Information & NOTAM
ADDS - METARS form results

(2016 UTC 27 November 2020)
Data provider http://aviationweather.gov/metar/data/
 
METAR text: KLRO 271955Z AUTO 24006KT 9SM CLR 23/13 A3001 RMK AO2
Conditions at: KLRO (MOUNT PLEASANT , SC, US) observed 1955 UTC 27 November 2020
Temperature: 23.0°C (73°F)
Dewpoint: 13.0°C (55°F) [RH = 53%]
Pressure (altimeter): 30.01 inches Hg (1016.3 mb)
Winds: from the WSW (240 degrees) at 7 MPH (6 knots; 3.1 m/s)
Visibility: 9 miles (14 km)
Ceiling: at least 12,000 feet AGL
Clouds: sky clear below 12,000 feet AGL
Weather: automated observation with no human augmentation;
there may or may not be significant weather present at this time

METAR text: KLRO 271935Z AUTO VRB06KT 260V340 10SM CLR 23/12 A3001 RMK AO2
Conditions at: KLRO (MOUNT PLEASANT , SC, US) observed 1935 UTC 27 November 2020
Temperature: 23.0°C (73°F)
Dewpoint: 12.0°C (54°F) [RH = 50%]
Pressure (altimeter): 30.01 inches Hg (1016.3 mb)
Winds: variable direction winds at 7 MPH (6 knots; 3.1 m/s)
Visibility: 10 or more miles (16+ km)
Ceiling: at least 12,000 feet AGL
Clouds: sky clear below 12,000 feet AGL
Weather: automated observation with no human augmentation;
there may or may not be significant weather present at this time